sensor_id;sensor_type;location;lat;lon;timestamp;pressure;altitude;pressure_sealevel;temperature;humidity
39897;BME280;25567;48.276;14.242;2023-02-11T00:01:25;100421.28;;;-3.67;89.87
39897;BME280;25567;48.276;14.242;2023-02-11T00:03:55;100415.06;;;-3.65;89.52
39897;BME280;25567;48.276;14.242;2023-02-11T00:06:23;100413.78;;;-3.72;89.29
39897;BME280;25567;48.276;14.242;2023-02-11T00:08:52;100409.78;;;-3.78;90.06
39897;BME280;25567;48.276;14.242;2023-02-11T00:11:21;100411.63;;;-3.80;89.96
39897;BME280;25567;48.276;14.242;2023-02-11T00:13:52;100409.94;;;-3.81;89.89
39897;BME280;25567;48.276;14.242;2023-02-11T00:16:21;100402.72;;;-3.76;89.84
39897;BME280;25567;48.276;14.242;2023-02-11T00:18:49;100398.31;;;-3.74;89.28
39897;BME280;25567;48.276;14.242;2023-02-11T00:21:22;100397.34;;;-3.73;89.03
39897;BME280;25567;48.276;14.242;2023-02-11T00:23:52;100397.53;;;-3.76;88.85
39897;BME280;25567;48.276;14.242;2023-02-11T00:26:23;100404.75;;;-3.81;88.45
39897;BME280;25567;48.276;14.242;2023-02-11T00:28:52;100404.03;;;-3.83;88.71
39897;BME280;25567;48.276;14.242;2023-02-11T00:31:22;100404.75;;;-3.81;88.76
39897;BME280;25567;48.276;14.242;2023-02-11T00:33:52;100406.75;;;-3.86;88.70
39897;BME280;25567;48.276;14.242;2023-02-11T00:36:23;100402.53;;;-3.87;88.80
39897;BME280;25567;48.276;14.242;2023-02-11T00:38:52;100412.84;;;-4.02;89.12
39897;BME280;25567;48.276;14.242;2023-02-11T00:41:21;100406.94;;;-3.89;89.02
39897;BME280;25567;48.276;14.242;2023-02-11T00:43:50;100400.94;;;-3.90;88.43
39897;BME280;25567;48.276;14.242;2023-02-11T00:46:17;100403.78;;;-3.94;88.11
39897;BME280;25567;48.276;14.242;2023-02-11T00:48:46;100401.31;;;-4.12;88.04
39897;BME280;25567;48.276;14.242;2023-02-11T00:51:14;100408.09;;;-4.09;88.31
39897;BME280;25567;48.276;14.242;2023-02-11T00:53:41;100402.75;;;-4.22;89.22
39897;BME280;25567;48.276;14.242;2023-02-11T00:56:10;100404.44;;;-4.21;89.22
39897;BME280;25567;48.276;14.242;2023-02-11T00:58:39;100401.06;;;-4.23;89.67
39897;BME280;25567;48.276;14.242;2023-02-11T01:01:08;100404.16;;;-4.16;90.23
39897;BME280;25567;48.276;14.242;2023-02-11T01:03:38;100394.97;;;-4.22;89.24
39897;BME280;25567;48.276;14.242;2023-02-11T01:06:07;100406.69;;;-4.31;89.15
39897;BME280;25567;48.276;14.242;2023-02-11T01:08:37;100400.50;;;-4.28;89.46
39897;BME280;25567;48.276;14.242;2023-02-11T01:11:11;100397.97;;;-4.30;88.73
39897;BME280;25567;48.276;14.242;2023-02-11T01:13:40;100401.66;;;-4.34;89.01
39897;BME280;25567;48.276;14.242;2023-02-11T01:16:09;100394.16;;;-4.39;89.30
39897;BME280;25567;48.276;14.242;2023-02-11T01:18:39;100394.31;;;-4.42;89.50
39897;BME280;25567;48.276;14.242;2023-02-11T01:21:08;100393.81;;;-4.48;90.49
39897;BME280;25567;48.276;14.242;2023-02-11T01:23:38;100388.56;;;-4.47;90.79
39897;BME280;25567;48.276;14.242;2023-02-11T01:26:06;100395.25;;;-4.43;91.11
39897;BME280;25567;48.276;14.242;2023-02-11T01:28:38;100387.31;;;-4.40;91.45
39897;BME280;25567;48.276;14.242;2023-02-11T01:31:06;100388.97;;;-4.39;90.85
39897;BME280;25567;48.276;14.242;2023-02-11T01:33:35;100385.91;;;-4.61;89.28
39897;BME280;25567;48.276;14.242;2023-02-11T01:36:05;100384.81;;;-4.73;88.69
39897;BME280;25567;48.276;14.242;2023-02-11T01:38:33;100377.13;;;-4.59;89.65
39897;BME280;25567;48.276;14.242;2023-02-11T01:41:05;100376.94;;;-4.56;90.12
39897;BME280;25567;48.276;14.242;2023-02-11T01:43:36;100375.78;;;-4.50;90.11
39897;BME280;25567;48.276;14.242;2023-02-11T01:48:56;100373.44;;;-4.39;91.16
39897;BME280;25567;48.276;14.242;2023-02-11T01:51:33;100368.06;;;-4.36;91.65
39897;BME280;25567;48.276;14.242;2023-02-11T01:54:02;100373.56;;;-4.26;92.26
39897;BME280;25567;48.276;14.242;2023-02-11T01:56:50;100363.44;;;-4.14;92.70
39897;BME280;25567;48.276;14.242;2023-02-11T01:59:43;100370.69;;;-4.05;93.15
39897;BME280;25567;48.276;14.242;2023-02-11T02:02:14;100376.38;;;-3.98;92.96
39897;BME280;25567;48.276;14.242;2023-02-11T02:04:54;100373.09;;;-4.02;92.93
39897;BME280;25567;48.276;14.242;2023-02-11T02:07:32;100368.19;;;-4.07;92.90
39897;BME280;25567;48.276;14.242;2023-02-11T02:10:07;100375.50;;;-4.13;92.64
39897;BME280;25567;48.276;14.242;2023-02-11T02:12:36;100369.72;;;-4.19;92.75
39897;BME280;25567;48.276;14.242;2023-02-11T02:17:58;100362.13;;;-4.22;93.13
39897;BME280;25567;48.276;14.242;2023-02-11T02:24:10;100364.63;;;-4.20;92.91
39897;BME280;25567;48.276;14.242;2023-02-11T02:26:36;100352.16;;;-4.13;92.27
39897;BME280;25567;48.276;14.242;2023-02-11T02:29:52;100338.44;;;-4.15;91.98
39897;BME280;25567;48.276;14.242;2023-02-11T02:40:09;100337.22;;;-4.24;92.54
39897;BME280;25567;48.276;14.242;2023-02-11T02:42:40;100333.00;;;-4.11;91.93
39897;BME280;25567;48.276;14.242;2023-02-11T02:45:12;100327.78;;;-3.95;91.63
39897;BME280;25567;48.276;14.242;2023-02-11T02:47:41;100323.06;;;-3.88;91.05
39897;BME280;25567;48.276;14.242;2023-02-11T02:50:12;100333.16;;;-3.83;91.10
39897;BME280;25567;48.276;14.242;2023-02-11T02:58:32;100328.34;;;-3.90;90.82
39897;BME280;25567;48.276;14.242;2023-02-11T03:01:19;100320.00;;;-3.95;91.11
39897;BME280;25567;48.276;14.242;2023-02-11T03:06:52;100316.56;;;-3.95;91.07
39897;BME280;25567;48.276;14.242;2023-02-11T03:12:05;100324.81;;;-4.03;90.63
39897;BME280;25567;48.276;14.242;2023-02-11T03:14:35;100319.53;;;-4.02;90.58
39897;BME280;25567;48.276;14.242;2023-02-11T03:17:05;100325.72;;;-4.04;90.58
39897;BME280;25567;48.276;14.242;2023-02-11T03:19:39;100321.50;;;-4.21;91.01
39897;BME280;25567;48.276;14.242;2023-02-11T03:22:15;100320.72;;;-4.23;90.86
39897;BME280;25567;48.276;14.242;2023-02-11T03:24:44;100318.22;;;-4.25;90.76
39897;BME280;25567;48.276;14.242;2023-02-11T03:27:23;100313.44;;;-4.31;91.08
39897;BME280;25567;48.276;14.242;2023-02-11T03:30:04;100313.28;;;-4.44;90.31
39897;BME280;25567;48.276;14.242;2023-02-11T03:32:40;100311.41;;;-4.42;90.72
39897;BME280;25567;48.276;14.242;2023-02-11T03:35:19;100306.09;;;-4.55;90.23
39897;BME280;25567;48.276;14.242;2023-02-11T03:37:52;100300.66;;;-4.50;90.64
39897;BME280;25567;48.276;14.242;2023-02-11T03:40:27;100300.84;;;-4.53;90.86
39897;BME280;25567;48.276;14.242;2023-02-11T03:45:25;100290.00;;;-4.60;90.76
39897;BME280;25567;48.276;14.242;2023-02-11T03:48:01;100287.91;;;-4.69;91.61
39897;BME280;25567;48.276;14.242;2023-02-11T03:50:31;100285.41;;;-4.71;91.61
39897;BME280;25567;48.276;14.242;2023-02-11T03:53:01;100291.22;;;-4.67;92.27
39897;BME280;25567;48.276;14.242;2023-02-11T03:55:35;100292.72;;;-4.63;91.79
39897;BME280;25567;48.276;14.242;2023-02-11T03:58:05;100284.97;;;-4.63;92.39
39897;BME280;25567;48.276;14.242;2023-02-11T04:00:35;100283.38;;;-4.49;92.95
39897;BME280;25567;48.276;14.242;2023-02-11T04:03:09;100281.59;;;-4.49;93.99
39897;BME280;25567;48.276;14.242;2023-02-11T04:05:39;100281.09;;;-4.40;94.95
39897;BME280;25567;48.276;14.242;2023-02-11T04:08:08;100283.25;;;-4.32;94.86
39897;BME280;25567;48.276;14.242;2023-02-11T04:10:36;100282.31;;;-4.31;95.40
39897;BME280;25567;48.276;14.242;2023-02-11T04:13:02;100292.31;;;-4.25;95.34
39897;BME280;25567;48.276;14.242;2023-02-11T04:15:31;100299.38;;;-4.27;95.15
39897;BME280;25567;48.276;14.242;2023-02-11T04:17:59;100287.31;;;-4.28;95.54
39897;BME280;25567;48.276;14.242;2023-02-11T04:20:29;100287.22;;;-4.26;95.42
39897;BME280;25567;48.276;14.242;2023-02-11T04:22:56;100282.22;;;-4.29;95.75
39897;BME280;25567;48.276;14.242;2023-02-11T04:25:24;100273.47;;;-4.27;95.55
39897;BME280;25567;48.276;14.242;2023-02-11T04:27:52;100262.22;;;-4.27;95.60
39897;BME280;25567;48.276;14.242;2023-02-11T04:30:21;100272.09;;;-4.04;95.94
39897;BME280;25567;48.276;14.242;2023-02-11T04:32:48;100266.66;;;-3.99;95.57
39897;BME280;25567;48.276;14.242;2023-02-11T04:35:16;100265.72;;;-3.98;95.39
39897;BME280;25567;48.276;14.242;2023-02-11T04:37:44;100277.50;;;-3.92;95.50
39897;BME280;25567;48.276;14.242;2023-02-11T04:40:12;100271.94;;;-3.86;94.92
39897;BME280;25567;48.276;14.242;2023-02-11T04:42:40;100279.47;;;-3.81;94.73
39897;BME280;25567;48.276;14.242;2023-02-11T04:45:09;100274.53;;;-3.72;94.18
39897;BME280;25567;48.276;14.242;2023-02-11T04:47:39;100268.19;;;-3.66;93.94
39897;BME280;25567;48.276;14.242;2023-02-11T04:50:07;100272.50;;;-3.66;93.37
39897;BME280;25567;48.276;14.242;2023-02-11T04:52:36;100275.97;;;-3.66;93.27
39897;BME280;25567;48.276;14.242;2023-02-11T04:55:05;100279.94;;;-3.60;93.21
39897;BME280;25567;48.276;14.242;2023-02-11T04:57:36;100273.22;;;-3.36;92.64
39897;BME280;25567;48.276;14.242;2023-02-11T05:00:04;100276.47;;;-3.32;91.58
39897;BME280;25567;48.276;14.242;2023-02-11T05:02:34;100274.81;;;-3.33;90.52
39897;BME280;25567;48.276;14.242;2023-02-11T05:05:03;100275.47;;;-3.29;89.95
39897;BME280;25567;48.276;14.242;2023-02-11T05:07:32;100273.78;;;-3.30;89.69
39897;BME280;25567;48.276;14.242;2023-02-11T05:10:00;100268.78;;;-3.19;89.24
39897;BME280;25567;48.276;14.242;2023-02-11T05:12:27;100283.78;;;-3.10;89.23
39897;BME280;25567;48.276;14.242;2023-02-11T05:14:54;100268.78;;;-3.19;89.19
39897;BME280;25567;48.276;14.242;2023-02-11T05:17:21;100283.13;;;-3.13;89.47
39897;BME280;25567;48.276;14.242;2023-02-11T05:19:49;100280.38;;;-3.10;89.48
39897;BME280;25567;48.276;14.242;2023-02-11T05:22:17;100267.44;;;-3.12;89.20
39897;BME280;25567;48.276;14.242;2023-02-11T05:24:46;100272.09;;;-3.17;89.40
39897;BME280;25567;48.276;14.242;2023-02-11T05:27:13;100272.84;;;-3.15;89.28
39897;BME280;25567;48.276;14.242;2023-02-11T05:29:44;100276.25;;;-3.14;89.57
39897;BME280;25567;48.276;14.242;2023-02-11T05:32:13;100266.38;;;-3.22;89.74
39897;BME280;25567;48.276;14.242;2023-02-11T05:34:41;100264.59;;;-3.22;89.87
39897;BME280;25567;48.276;14.242;2023-02-11T05:37:08;100266.91;;;-3.17;89.60
39897;BME280;25567;48.276;14.242;2023-02-11T05:39:38;100261.72;;;-3.17;89.82
39897;BME280;25567;48.276;14.242;2023-02-11T05:42:06;100254.13;;;-3.20;90.26
39897;BME280;25567;48.276;14.242;2023-02-11T05:44:34;100261.53;;;-3.14;89.77
39897;BME280;25567;48.276;14.242;2023-02-11T05:47:01;100266.44;;;-3.09;89.65
39897;BME280;25567;48.276;14.242;2023-02-11T05:49:29;100272.84;;;-3.15;89.50
39897;BME280;25567;48.276;14.242;2023-02-11T05:51:59;100273.78;;;-3.16;89.63
39897;BME280;25567;48.276;14.242;2023-02-11T05:54:28;100271.81;;;-3.12;89.81
39897;BME280;25567;48.276;14.242;2023-02-11T05:56:58;100272.84;;;-3.15;89.82
39897;BME280;25567;48.276;14.242;2023-02-11T05:59:27;100277.84;;;-3.12;89.75
39897;BME280;25567;48.276;14.242;2023-02-11T06:01:54;100273.50;;;-3.11;89.84
39897;BME280;25567;48.276;14.242;2023-02-11T06:04:22;100277.25;;;-3.03;89.44
39897;BME280;25567;48.276;14.242;2023-02-11T06:06:51;100270.03;;;-2.97;89.71
39897;BME280;25567;48.276;14.242;2023-02-11T06:09:18;100262.78;;;-2.92;88.87
39897;BME280;25567;48.276;14.242;2023-02-11T06:11:47;100262.06;;;-2.94;88.91
39897;BME280;25567;48.276;14.242;2023-02-11T06:14:16;100257.13;;;-2.99;88.99
39897;BME280;25567;48.276;14.242;2023-02-11T06:16:44;100255.38;;;-2.98;89.04
39897;BME280;25567;48.276;14.242;2023-02-11T06:19:14;100251.84;;;-2.97;89.00
39897;BME280;25567;48.276;14.242;2023-02-11T06:21:41;100261.84;;;-2.91;89.01
39897;BME280;25567;48.276;14.242;2023-02-11T06:24:11;100247.56;;;-2.98;89.05
39897;BME280;25567;48.276;14.242;2023-02-11T06:26:40;100245.94;;;-2.99;89.23
39897;BME280;25567;48.276;14.242;2023-02-11T06:29:09;100242.22;;;-2.95;89.48
39897;BME280;25567;48.276;14.242;2023-02-11T06:31:40;100247.97;;;-3.05;90.25
39897;BME280;25567;48.276;14.242;2023-02-11T06:34:09;100242.09;;;-2.94;89.89
39897;BME280;25567;48.276;14.242;2023-02-11T06:36:38;100247.19;;;-2.92;90.02
39897;BME280;25567;48.276;14.242;2023-02-11T06:39:07;100239.59;;;-2.95;90.63
39897;BME280;25567;48.276;14.242;2023-02-11T06:41:35;100247.41;;;-2.95;90.66
39897;BME280;25567;48.276;14.242;2023-02-11T06:44:04;100250.53;;;-2.90;90.90
39897;BME280;25567;48.276;14.242;2023-02-11T06:46:31;100255.38;;;-2.98;90.68
39897;BME280;25567;48.276;14.242;2023-02-11T06:48:59;100257.34;;;-3.02;91.45
39897;BME280;25567;48.276;14.242;2023-02-11T06:51:27;100270.44;;;-3.04;91.55
39897;BME280;25567;48.276;14.242;2023-02-11T06:53:54;100272.50;;;-2.96;91.30
39897;BME280;25567;48.276;14.242;2023-02-11T06:56:22;100275.56;;;-2.89;91.28
39897;BME280;25567;48.276;14.242;2023-02-11T06:58:53;100272.78;;;-2.86;90.99
39897;BME280;25567;48.276;14.242;2023-02-11T07:01:24;100270.38;;;-2.89;91.39
39897;BME280;25567;48.276;14.242;2023-02-11T07:03:54;100286.69;;;-2.87;91.29
39897;BME280;25567;48.276;14.242;2023-02-11T07:06:23;100275.94;;;-2.81;91.47
39897;BME280;25567;48.276;14.242;2023-02-11T07:08:54;100272.78;;;-2.86;90.94
39897;BME280;25567;48.276;14.242;2023-02-11T07:11:24;100268.31;;;-2.84;91.03
39897;BME280;25567;48.276;14.242;2023-02-11T07:13:55;100277.44;;;-2.91;91.34
39897;BME280;25567;48.276;14.242;2023-02-11T07:16:24;100263.31;;;-2.87;91.38
39897;BME280;25567;48.276;14.242;2023-02-11T07:18:53;100253.69;;;-2.85;91.54
39897;BME280;25567;48.276;14.242;2023-02-11T07:21:22;100253.69;;;-2.85;91.98
39897;BME280;25567;48.276;14.242;2023-02-11T07:23:52;100248.66;;;-2.88;92.01
39897;BME280;25567;48.276;14.242;2023-02-11T07:26:23;100260.72;;;-2.87;92.37
39897;BME280;25567;48.276;14.242;2023-02-11T07:28:53;100256.41;;;-2.74;92.64
39897;BME280;25567;48.276;14.242;2023-02-11T07:31:23;100253.97;;;-2.62;92.46
39897;BME280;25567;48.276;14.242;2023-02-11T07:33:53;100262.34;;;-2.72;92.55
39897;BME280;25567;48.276;14.242;2023-02-11T07:36:22;100278.72;;;-2.57;92.30
39897;BME280;25567;48.276;14.242;2023-02-11T07:38:50;100268.44;;;-2.58;91.77
39897;BME280;25567;48.276;14.242;2023-02-11T07:41:20;100271.88;;;-2.45;91.38
39897;BME280;25567;48.276;14.242;2023-02-11T07:43:49;100276.22;;;-2.45;91.24
39897;BME280;25567;48.276;14.242;2023-02-11T07:46:20;100274.59;;;-2.33;90.58
39897;BME280;25567;48.276;14.242;2023-02-11T07:48:49;100265.59;;;-2.28;90.34
39897;BME280;25567;48.276;14.242;2023-02-11T07:51:20;100251.31;;;-2.35;90.34
39897;BME280;25567;48.276;14.242;2023-02-11T07:53:49;100258.59;;;-2.27;90.18
39897;BME280;25567;48.276;14.242;2023-02-11T07:56:19;100262.13;;;-2.28;90.20
39897;BME280;25567;48.276;14.242;2023-02-11T07:58:47;100250.28;;;-2.32;90.92
39897;BME280;25567;48.276;14.242;2023-02-11T08:01:19;100246.75;;;-2.31;90.85
39897;BME280;25567;48.276;14.242;2023-02-11T08:03:48;100253.63;;;-2.30;91.12
39897;BME280;25567;48.276;14.242;2023-02-11T08:06:18;100255.78;;;-2.24;91.17
39897;BME280;25567;48.276;14.242;2023-02-11T08:08:46;100255.78;;;-2.24;91.40
39897;BME280;25567;48.276;14.242;2023-02-11T08:11:17;100257.69;;;-2.26;91.85
39897;BME280;25567;48.276;14.242;2023-02-11T08:13:45;100253.00;;;-2.21;92.08
39897;BME280;25567;48.276;14.242;2023-02-11T08:16:25;100263.41;;;-2.08;92.33
39897;BME280;25567;48.276;14.242;2023-02-11T08:18:56;100254.91;;;-2.10;92.44
39897;BME280;25567;48.276;14.242;2023-02-11T08:21:26;100251.78;;;-2.03;92.39
39897;BME280;25567;48.276;14.242;2023-02-11T08:23:55;100234.81;;;-1.95;92.32
39897;BME280;25567;48.276;14.242;2023-02-11T08:26:27;100237.63;;;-1.73;91.58
39897;BME280;25567;48.276;14.242;2023-02-11T08:28:57;100243.44;;;-1.69;90.98
39897;BME280;25567;48.276;14.242;2023-02-11T08:31:32;100231.25;;;-1.56;90.74
39897;BME280;25567;48.276;14.242;2023-02-11T08:34:00;100234.25;;;-1.49;89.91
39897;BME280;25567;48.276;14.242;2023-02-11T08:36:32;100233.09;;;-1.45;89.83
39897;BME280;25567;48.276;14.242;2023-02-11T08:39:02;100229.34;;;-1.41;89.81
39897;BME280;25567;48.276;14.242;2023-02-11T08:41:50;100230.91;;;-1.38;89.65
39897;BME280;25567;48.276;14.242;2023-02-11T08:44:21;100235.91;;;-1.35;89.86
39897;BME280;25567;48.276;14.242;2023-02-11T08:46:50;100234.41;;;-1.26;89.50
39897;BME280;25567;48.276;14.242;2023-02-11T08:49:19;100226.50;;;-1.25;89.33
39897;BME280;25567;48.276;14.242;2023-02-11T08:51:48;100229.50;;;-1.18;88.77
39897;BME280;25567;48.276;14.242;2023-02-11T08:54:17;100238.78;;;-1.14;88.26
39897;BME280;25567;48.276;14.242;2023-02-11T08:56:49;100234.78;;;-1.07;87.98
39897;BME280;25567;48.276;14.242;2023-02-11T08:59:16;100236.84;;;-0.99;86.95
39897;BME280;25567;48.276;14.242;2023-02-11T09:01:45;100246.59;;;-0.90;86.30
39897;BME280;25567;48.276;14.242;2023-02-11T09:04:15;100236.88;;;-0.88;85.02
39897;BME280;25567;48.276;14.242;2023-02-11T09:06:45;100244.16;;;-0.80;85.23
39897;BME280;25567;48.276;14.242;2023-02-11T09:09:15;100244.88;;;-0.78;84.60
39897;BME280;25567;48.276;14.242;2023-02-11T09:11:43;100245.16;;;-0.70;84.87
39897;BME280;25567;48.276;14.242;2023-02-11T09:14:18;100248.53;;;-0.56;84.40
39897;BME280;25567;48.276;14.242;2023-02-11T09:16:45;100247.09;;;-0.60;83.25
39897;BME280;25567;48.276;14.242;2023-02-11T09:19:16;100243.31;;;-0.56;83.33
39897;BME280;25567;48.276;14.242;2023-02-11T09:21:43;100246.53;;;-0.53;82.42
39897;BME280;25567;48.276;14.242;2023-02-11T09:24:12;100244.53;;;-0.49;82.23
39897;BME280;25567;48.276;14.242;2023-02-11T09:26:41;100245.63;;;-0.40;82.06
39897;BME280;25567;48.276;14.242;2023-02-11T09:29:10;100254.75;;;-0.35;81.11
39897;BME280;25567;48.276;14.242;2023-02-11T09:31:41;100249.53;;;-0.35;81.18
39897;BME280;25567;48.276;14.242;2023-02-11T09:34:11;100238.66;;;-0.28;81.46
39897;BME280;25567;48.276;14.242;2023-02-11T09:36:39;100234.88;;;-0.24;81.19
39897;BME280;25567;48.276;14.242;2023-02-11T09:39:13;100225.97;;;-0.33;81.51
39897;BME280;25567;48.276;14.242;2023-02-11T09:41:53;100233.69;;;-0.31;81.42
39897;BME280;25567;48.276;14.242;2023-02-11T09:44:29;100239.84;;;-0.32;81.40
39897;BME280;25567;48.276;14.242;2023-02-11T09:47:01;100240.56;;;-0.30;80.98
39897;BME280;25567;48.276;14.242;2023-02-11T09:49:41;100244.38;;;-0.23;80.84
39897;BME280;25567;48.276;14.242;2023-02-11T09:54:54;100236.78;;;-0.15;80.48
39897;BME280;25567;48.276;14.242;2023-02-11T09:57:27;100238.47;;;-0.14;80.46
39897;BME280;25567;48.276;14.242;2023-02-11T09:59:58;100234.34;;;-0.05;80.12
39897;BME280;25567;48.276;14.242;2023-02-11T10:02:40;100233.97;;;-0.01;79.14
39897;BME280;25567;48.276;14.242;2023-02-11T10:08:14;100223.09;;;0.06;78.37
39897;BME280;25567;48.276;14.242;2023-02-11T10:10:52;100224.38;;;0.11;78.58
39897;BME280;25567;48.276;14.242;2023-02-11T10:21:56;100232.34;;;0.10;78.96
39897;BME280;25567;48.276;14.242;2023-02-11T10:24:26;100243.25;;;0.15;79.46
39897;BME280;25567;48.276;14.242;2023-02-11T10:26:55;100242.19;;;0.18;79.21
39897;BME280;25567;48.276;14.242;2023-02-11T10:29:37;100235.78;;;0.22;78.50
39897;BME280;25567;48.276;14.242;2023-02-11T10:35:01;100225.69;;;0.40;78.71
39897;BME280;25567;48.276;14.242;2023-02-11T10:37:31;100222.97;;;0.41;79.44
39897;BME280;25567;48.276;14.242;2023-02-11T10:40:00;100223.09;;;0.51;79.19
39897;BME280;25567;48.276;14.242;2023-02-11T10:42:27;100214.88;;;0.56;79.04
39897;BME280;25567;48.276;14.242;2023-02-11T10:45:03;100213.34;;;0.64;77.98
39897;BME280;25567;48.276;14.242;2023-02-11T10:47:35;100216.16;;;0.73;77.88
39897;BME280;25567;48.276;14.242;2023-02-11T10:52:45;100210.34;;;0.80;77.30
39897;BME280;25567;48.276;14.242;2023-02-11T10:57:52;100189.56;;;0.90;76.56
39897;BME280;25567;48.276;14.242;2023-02-11T11:00:33;100197.38;;;0.90;77.12
39897;BME280;25567;48.276;14.242;2023-02-11T11:03:16;100202.63;;;0.90;76.08
39897;BME280;25567;48.276;14.242;2023-02-11T11:05:48;100212.09;;;0.91;75.93
39897;BME280;25567;48.276;14.242;2023-02-11T11:08:17;100196.88;;;0.96;75.04
39897;BME280;25567;48.276;14.242;2023-02-11T11:11:00;100206.97;;;1.01;74.74
39897;BME280;25567;48.276;14.242;2023-02-11T11:13:32;100196.38;;;1.03;74.43
39897;BME280;25567;48.276;14.242;2023-02-11T11:16:17;100186.19;;;0.99;74.85
39897;BME280;25567;48.276;14.242;2023-02-11T11:18:47;100192.38;;;0.98;73.93
39897;BME280;25567;48.276;14.242;2023-02-11T11:21:17;100185.34;;;0.99;74.50
39897;BME280;25567;48.276;14.242;2023-02-11T11:23:56;100189.81;;;1.08;73.59
39897;BME280;25567;48.276;14.242;2023-02-11T11:26:28;100182.94;;;1.07;74.03
39897;BME280;25567;48.276;14.242;2023-02-11T11:29:10;100180.44;;;1.06;73.79
39897;BME280;25567;48.276;14.242;2023-02-11T11:31:46;100183.19;;;1.04;73.82
39897;BME280;25567;48.276;14.242;2023-02-11T11:34:27;100183.59;;;0.99;73.94
39897;BME280;25567;48.276;14.242;2023-02-11T11:36:58;100171.94;;;1.04;74.13
39897;BME280;25567;48.276;14.242;2023-02-11T11:39:31;100170.91;;;1.16;73.95
39897;BME280;25567;48.276;14.242;2023-02-11T11:42:03;100156.91;;;1.17;72.71
39897;BME280;25567;48.276;14.242;2023-02-11T11:44:35;100150.81;;;1.16;73.42
39897;BME280;25567;48.276;14.242;2023-02-11T11:47:14;100151.66;;;1.17;73.43
39897;BME280;25567;48.276;14.242;2023-02-11T11:52:55;100144.03;;;1.25;72.31
39897;BME280;25567;48.276;14.242;2023-02-11T11:55:34;100147.13;;;1.19;72.60
39897;BME280;25567;48.276;14.242;2023-02-11T11:58:10;100144.34;;;1.32;72.13
39897;BME280;25567;48.276;14.242;2023-02-11T12:03:51;100131.53;;;1.29;72.17
39897;BME280;25567;48.276;14.242;2023-02-11T12:06:48;100129.47;;;1.32;72.43
39897;BME280;25567;48.276;14.242;2023-02-11T12:09:24;100119.53;;;1.26;72.65
39897;BME280;25567;48.276;14.242;2023-02-11T12:20:23;100105.56;;;1.37;72.45
39897;BME280;25567;48.276;14.242;2023-02-11T12:31:54;100091.53;;;1.38;74.11
39897;BME280;25567;48.276;14.242;2023-02-11T12:34:29;100086.88;;;1.42;73.30
39897;BME280;25567;48.276;14.242;2023-02-11T12:37:04;100084.38;;;1.40;73.25
39897;BME280;25567;48.276;14.242;2023-02-11T12:39:50;100081.31;;;1.56;72.99
39897;BME280;25567;48.276;14.242;2023-02-11T12:51:08;100059.59;;;1.65;73.36
39897;BME280;25567;48.276;14.242;2023-02-11T12:54:07;100054.81;;;1.71;73.66
39897;BME280;25567;48.276;14.242;2023-02-11T12:56:44;100060.59;;;1.74;74.16
39897;BME280;25567;48.276;14.242;2023-02-11T13:02:20;100059.50;;;1.77;73.19
39897;BME280;25567;48.276;14.242;2023-02-11T13:04:56;100062.13;;;1.77;73.89
39897;BME280;25567;48.276;14.242;2023-02-11T13:07:31;100070.13;;;1.75;73.95
39897;BME280;25567;48.276;14.242;2023-02-11T13:10:06;100056.19;;;1.75;73.50
39897;BME280;25567;48.276;14.242;2023-02-11T13:12:47;100052.19;;;1.71;74.33
39897;BME280;25567;48.276;14.242;2023-02-11T13:15:30;100043.53;;;1.80;74.21
39897;BME280;25567;48.276;14.242;2023-02-11T13:18:12;100050.44;;;1.81;73.51
39897;BME280;25567;48.276;14.242;2023-02-11T13:23:40;100048.25;;;1.86;74.49
39897;BME280;25567;48.276;14.242;2023-02-11T13:26:28;100034.50;;;1.94;74.16
39897;BME280;25567;48.276;14.242;2023-02-11T13:29:44;100029.00;;;1.87;73.76
39897;BME280;25567;48.276;14.242;2023-02-11T13:32:12;100041.38;;;1.95;74.25
39897;BME280;25567;48.276;14.242;2023-02-11T13:37:20;100053.78;;;1.93;74.57
39897;BME280;25567;48.276;14.242;2023-02-11T13:42:54;100062.06;;;1.98;74.02
39897;BME280;25567;48.276;14.242;2023-02-11T13:45:45;100054.34;;;1.96;74.31
39897;BME280;25567;48.276;14.242;2023-02-11T13:48:22;100058.06;;;1.94;74.18
39897;BME280;25567;48.276;14.242;2023-02-11T13:50:55;100058.16;;;1.92;74.58
39897;BME280;25567;48.276;14.242;2023-02-11T13:53:26;100060.09;;;1.90;74.88
39897;BME280;25567;48.276;14.242;2023-02-11T13:56:07;100058.31;;;1.91;75.33
39897;BME280;25567;48.276;14.242;2023-02-11T13:58:47;100055.88;;;1.99;74.78
39897;BME280;25567;48.276;14.242;2023-02-11T14:01:40;100059.69;;;1.95;74.73
39897;BME280;25567;48.276;14.242;2023-02-11T14:04:26;100060.00;;;2.02;74.97
39897;BME280;25567;48.276;14.242;2023-02-11T14:07:30;100052.84;;;2.04;75.13
39897;BME280;25567;48.276;14.242;2023-02-11T14:13:23;100065.38;;;2.00;75.73
39897;BME280;25567;48.276;14.242;2023-02-11T14:16:10;100049.66;;;2.00;75.66
39897;BME280;25567;48.276;14.242;2023-02-11T14:23:48;100053.41;;;2.07;75.97
39897;BME280;25567;48.276;14.242;2023-02-11T14:26:31;100054.94;;;2.10;76.17
39897;BME280;25567;48.276;14.242;2023-02-11T14:41:11;100043.38;;;2.12;75.74
39897;BME280;25567;48.276;14.242;2023-02-11T14:43:25;100044.63;;;2.18;75.74
39897;BME280;25567;48.276;14.242;2023-02-11T14:45:57;100035.13;;;2.27;76.06
39897;BME280;25567;48.276;14.242;2023-02-11T14:48:32;100039.25;;;2.29;75.88
39897;BME280;25567;48.276;14.242;2023-02-11T14:51:20;100026.00;;;2.21;76.13
39897;BME280;25567;48.276;14.242;2023-02-11T14:53:54;100026.44;;;2.26;75.86
39897;BME280;25567;48.276;14.242;2023-02-11T14:56:29;100026.84;;;2.31;75.50
39897;BME280;25567;48.276;14.242;2023-02-11T14:58:59;100033.19;;;2.39;75.19
39897;BME280;25567;48.276;14.242;2023-02-11T15:01:33;100029.63;;;2.30;75.38
39897;BME280;25567;48.276;14.242;2023-02-11T15:04:05;100027.00;;;2.40;75.08
39897;BME280;25567;48.276;14.242;2023-02-11T15:06:47;100035.56;;;2.42;74.80